sensor_id;sensor_type;location;lat;lon;timestamp;temperature;humidity
22471;DHT22;11402;51.374;6.594;2023-04-30T00:01:37;9.40;99.90
22471;DHT22;11402;51.374;6.594;2023-04-30T00:04:03;9.50;99.90
22471;DHT22;11402;51.374;6.594;2023-04-30T00:06:28;9.40;99.90
22471;DHT22;11402;51.374;6.594;2023-04-30T00:08:55;9.30;99.90
22471;DHT22;11402;51.374;6.594;2023-04-30T00:11:21;9.30;99.90
22471;DHT22;11402;51.374;6.594;2023-04-30T00:13:47;9.20;99.90
22471;DHT22;11402;51.374;6.594;2023-04-30T00:16:12;9.20;99.90
22471;DHT22;11402;51.374;6.594;2023-04-30T00:18:38;9.30;99.90
22471;DHT22;11402;51.374;6.594;2023-04-30T00:21:04;9.30;99.90
22471;DHT22;11402;51.374;6.594;2023-04-30T00:23:29;9.30;99.90
22471;DHT22;11402;51.374;6.594;2023-04-30T00:25:55;9.30;99.90
22471;DHT22;11402;51.374;6.594;2023-04-30T00:28:20;9.10;99.90
22471;DHT22;11402;51.374;6.594;2023-04-30T00:30:47;9.10;99.90
22471;DHT22;11402;51.374;6.594;2023-04-30T00:33:13;9.10;99.90
22471;DHT22;11402;51.374;6.594;2023-04-30T00:35:38;9.00;99.90
22471;DHT22;11402;51.374;6.594;2023-04-30T00:38:04;9.00;99.90
22471;DHT22;11402;51.374;6.594;2023-04-30T00:40:30;9.10;99.90
22471;DHT22;11402;51.374;6.594;2023-04-30T00:42:55;9.20;99.90
22471;DHT22;11402;51.374;6.594;2023-04-30T00:45:21;9.10;99.90
22471;DHT22;11402;51.374;6.594;2023-04-30T00:47:47;9.10;99.90
22471;DHT22;11402;51.374;6.594;2023-04-30T00:50:14;9.00;99.90
22471;DHT22;11402;51.374;6.594;2023-04-30T00:52:41;9.00;99.90
22471;DHT22;11402;51.374;6.594;2023-04-30T00:55:08;9.00;99.90
22471;DHT22;11402;51.374;6.594;2023-04-30T00:57:34;9.10;99.90
22471;DHT22;11402;51.374;6.594;2023-04-30T01:00:01;9.00;99.90
22471;DHT22;11402;51.374;6.594;2023-04-30T01:02:27;9.00;99.90
22471;DHT22;11402;51.374;6.594;2023-04-30T01:04:53;8.80;99.90
22471;DHT22;11402;51.374;6.594;2023-04-30T01:07:19;8.70;99.90
22471;DHT22;11402;51.374;6.594;2023-04-30T01:09:45;8.50;99.90
22471;DHT22;11402;51.374;6.594;2023-04-30T01:12:20;8.50;99.90
22471;DHT22;11402;51.374;6.594;2023-04-30T01:15:13;8.40;99.90
22471;DHT22;11402;51.374;6.594;2023-04-30T01:18:00;8.40;99.90
22471;DHT22;11402;51.374;6.594;2023-04-30T01:20:28;8.60;99.90
22471;DHT22;11402;51.374;6.594;2023-04-30T01:25:45;8.60;99.90
22471;DHT22;11402;51.374;6.594;2023-04-30T01:28:15;8.50;99.90
22471;DHT22;11402;51.374;6.594;2023-04-30T01:30:42;8.50;99.90
22471;DHT22;11402;51.374;6.594;2023-04-30T01:33:11;8.60;99.90
22471;DHT22;11402;51.374;6.594;2023-04-30T01:40:55;8.50;99.90
22471;DHT22;11402;51.374;6.594;2023-04-30T01:46:27;8.50;99.90
22471;DHT22;11402;51.374;6.594;2023-04-30T01:51:50;8.30;99.90
22471;DHT22;11402;51.374;6.594;2023-04-30T01:54:30;8.30;99.90
22471;DHT22;11402;51.374;6.594;2023-04-30T01:57:06;8.40;99.90
22471;DHT22;11402;51.374;6.594;2023-04-30T01:59:37;8.30;99.90
22471;DHT22;11402;51.374;6.594;2023-04-30T02:02:04;8.20;99.90
22471;DHT22;11402;51.374;6.594;2023-04-30T02:04:30;8.20;99.90
22471;DHT22;11402;51.374;6.594;2023-04-30T02:06:56;8.00;99.90
22471;DHT22;11402;51.374;6.594;2023-04-30T02:09:23;7.90;99.90
22471;DHT22;11402;51.374;6.594;2023-04-30T02:11:49;7.90;99.90
22471;DHT22;11402;51.374;6.594;2023-04-30T02:14:14;8.00;99.90
22471;DHT22;11402;51.374;6.594;2023-04-30T02:16:40;8.00;99.90
22471;DHT22;11402;51.374;6.594;2023-04-30T02:19:06;8.00;99.90
22471;DHT22;11402;51.374;6.594;2023-04-30T02:21:31;8.00;99.90
22471;DHT22;11402;51.374;6.594;2023-04-30T02:23:57;8.00;99.90
22471;DHT22;11402;51.374;6.594;2023-04-30T02:26:22;8.10;99.90
22471;DHT22;11402;51.374;6.594;2023-04-30T02:28:48;8.20;99.90
22471;DHT22;11402;51.374;6.594;2023-04-30T02:31:13;8.20;99.90
22471;DHT22;11402;51.374;6.594;2023-04-30T02:33:39;8.10;99.90
22471;DHT22;11402;51.374;6.594;2023-04-30T02:36:05;8.10;99.90
22471;DHT22;11402;51.374;6.594;2023-04-30T02:38:30;8.00;99.90
22471;DHT22;11402;51.374;6.594;2023-04-30T02:40:56;8.00;99.90
22471;DHT22;11402;51.374;6.594;2023-04-30T02:43:21;8.10;99.90
22471;DHT22;11402;51.374;6.594;2023-04-30T02:45:47;8.10;99.90
22471;DHT22;11402;51.374;6.594;2023-04-30T02:48:13;8.00;99.90
22471;DHT22;11402;51.374;6.594;2023-04-30T02:50:38;8.10;99.90
22471;DHT22;11402;51.374;6.594;2023-04-30T02:53:04;8.20;99.90
22471;DHT22;11402;51.374;6.594;2023-04-30T02:55:29;8.00;99.90
22471;DHT22;11402;51.374;6.594;2023-04-30T02:57:56;7.80;99.90
22471;DHT22;11402;51.374;6.594;2023-04-30T03:00:21;7.80;99.90
22471;DHT22;11402;51.374;6.594;2023-04-30T03:02:47;7.80;99.90
22471;DHT22;11402;51.374;6.594;2023-04-30T03:05:13;7.90;99.90
22471;DHT22;11402;51.374;6.594;2023-04-30T03:07:40;7.80;99.90
22471;DHT22;11402;51.374;6.594;2023-04-30T03:10:06;7.90;99.90
22471;DHT22;11402;51.374;6.594;2023-04-30T03:12:32;7.80;99.90
22471;DHT22;11402;51.374;6.594;2023-04-30T03:14:57;7.90;99.90
22471;DHT22;11402;51.374;6.594;2023-04-30T03:17:23;7.60;99.90
22471;DHT22;11402;51.374;6.594;2023-04-30T03:19:49;7.60;99.90
22471;DHT22;11402;51.374;6.594;2023-04-30T03:22:15;7.60;99.90
22471;DHT22;11402;51.374;6.594;2023-04-30T03:24:44;7.60;99.90
22471;DHT22;11402;51.374;6.594;2023-04-30T03:27:09;7.80;99.90
22471;DHT22;11402;51.374;6.594;2023-04-30T03:29:35;7.80;99.90
22471;DHT22;11402;51.374;6.594;2023-04-30T03:32:00;7.80;99.90
22471;DHT22;11402;51.374;6.594;2023-04-30T03:34:26;7.70;99.90
22471;DHT22;11402;51.374;6.594;2023-04-30T03:36:51;7.70;99.90
22471;DHT22;11402;51.374;6.594;2023-04-30T03:39:17;7.60;99.90
22471;DHT22;11402;51.374;6.594;2023-04-30T03:41:42;7.60;99.90
22471;DHT22;11402;51.374;6.594;2023-04-30T03:44:08;7.60;99.90
22471;DHT22;11402;51.374;6.594;2023-04-30T03:46:43;7.60;99.90
22471;DHT22;11402;51.374;6.594;2023-04-30T03:49:09;7.40;99.90
22471;DHT22;11402;51.374;6.594;2023-04-30T03:51:36;7.40;99.90
22471;DHT22;11402;51.374;6.594;2023-04-30T03:54:05;7.40;99.90
22471;DHT22;11402;51.374;6.594;2023-04-30T03:56:31;7.30;99.90
22471;DHT22;11402;51.374;6.594;2023-04-30T03:58:57;7.10;99.90
22471;DHT22;11402;51.374;6.594;2023-04-30T04:01:22;7.00;99.90
22471;DHT22;11402;51.374;6.594;2023-04-30T04:03:48;7.00;99.90
22471;DHT22;11402;51.374;6.594;2023-04-30T04:06:14;7.00;99.90
22471;DHT22;11402;51.374;6.594;2023-04-30T04:08:39;7.10;99.90
22471;DHT22;11402;51.374;6.594;2023-04-30T04:11:10;7.10;99.90
22471;DHT22;11402;51.374;6.594;2023-04-30T04:13:36;7.20;99.90
22471;DHT22;11402;51.374;6.594;2023-04-30T04:16:02;7.30;99.90
22471;DHT22;11402;51.374;6.594;2023-04-30T04:18:27;7.30;99.90
22471;DHT22;11402;51.374;6.594;2023-04-30T04:20:54;7.20;99.90
22471;DHT22;11402;51.374;6.594;2023-04-30T04:23:20;7.10;99.90
22471;DHT22;11402;51.374;6.594;2023-04-30T04:25:46;7.20;99.90
22471;DHT22;11402;51.374;6.594;2023-04-30T04:28:14;7.20;99.90
22471;DHT22;11402;51.374;6.594;2023-04-30T04:30:40;7.20;99.90
22471;DHT22;11402;51.374;6.594;2023-04-30T04:33:06;7.30;99.90
22471;DHT22;11402;51.374;6.594;2023-04-30T04:35:32;7.30;99.90
22471;DHT22;11402;51.374;6.594;2023-04-30T04:37:57;7.30;99.90
22471;DHT22;11402;51.374;6.594;2023-04-30T04:40:23;7.30;99.90
22471;DHT22;11402;51.374;6.594;2023-04-30T04:42:49;7.30;99.90
22471;DHT22;11402;51.374;6.594;2023-04-30T04:45:16;7.20;99.90
22471;DHT22;11402;51.374;6.594;2023-04-30T04:47:42;7.20;99.90
22471;DHT22;11402;51.374;6.594;2023-04-30T04:50:07;7.30;99.90
22471;DHT22;11402;51.374;6.594;2023-04-30T04:52:34;7.40;99.90
22471;DHT22;11402;51.374;6.594;2023-04-30T04:55:00;7.40;99.90
22471;DHT22;11402;51.374;6.594;2023-04-30T04:57:25;7.40;99.90
22471;DHT22;11402;51.374;6.594;2023-04-30T04:59:51;7.60;99.90
22471;DHT22;11402;51.374;6.594;2023-04-30T05:02:17;7.80;99.90
22471;DHT22;11402;51.374;6.594;2023-04-30T05:04:42;7.90;99.90
22471;DHT22;11402;51.374;6.594;2023-04-30T05:07:09;7.80;99.90
22471;DHT22;11402;51.374;6.594;2023-04-30T05:09:35;7.90;99.90
22471;DHT22;11402;51.374;6.594;2023-04-30T05:12:00;7.90;99.90
22471;DHT22;11402;51.374;6.594;2023-04-30T05:14:26;7.90;99.90
22471;DHT22;11402;51.374;6.594;2023-04-30T05:16:52;7.70;99.90
22471;DHT22;11402;51.374;6.594;2023-04-30T05:19:17;7.70;99.90
22471;DHT22;11402;51.374;6.594;2023-04-30T05:21:43;7.90;99.90
22471;DHT22;11402;51.374;6.594;2023-04-30T05:24:08;8.00;99.90
22471;DHT22;11402;51.374;6.594;2023-04-30T05:26:34;8.10;99.90
22471;DHT22;11402;51.374;6.594;2023-04-30T05:28:59;8.00;99.90
22471;DHT22;11402;51.374;6.594;2023-04-30T05:31:25;8.20;99.90
22471;DHT22;11402;51.374;6.594;2023-04-30T05:33:51;8.20;99.90
22471;DHT22;11402;51.374;6.594;2023-04-30T05:36:16;8.20;99.90
22471;DHT22;11402;51.374;6.594;2023-04-30T05:38:42;8.30;99.90
22471;DHT22;11402;51.374;6.594;2023-04-30T05:41:10;8.60;99.90
22471;DHT22;11402;51.374;6.594;2023-04-30T05:43:36;8.60;99.90
22471;DHT22;11402;51.374;6.594;2023-04-30T05:46:02;8.60;99.90
22471;DHT22;11402;51.374;6.594;2023-04-30T05:48:28;8.60;99.90
22471;DHT22;11402;51.374;6.594;2023-04-30T05:50:54;9.00;99.90
22471;DHT22;11402;51.374;6.594;2023-04-30T05:53:20;8.90;99.90
22471;DHT22;11402;51.374;6.594;2023-04-30T05:55:45;8.90;99.90
22471;DHT22;11402;51.374;6.594;2023-04-30T05:58:11;8.90;99.90
22471;DHT22;11402;51.374;6.594;2023-04-30T06:00:36;9.20;99.90
22471;DHT22;11402;51.374;6.594;2023-04-30T06:03:03;9.30;99.90
22471;DHT22;11402;51.374;6.594;2023-04-30T06:05:29;9.50;99.90
22471;DHT22;11402;51.374;6.594;2023-04-30T06:07:54;9.70;99.90
22471;DHT22;11402;51.374;6.594;2023-04-30T06:10:20;9.90;99.90
22471;DHT22;11402;51.374;6.594;2023-04-30T06:12:45;9.90;99.90
22471;DHT22;11402;51.374;6.594;2023-04-30T06:15:11;9.90;99.90
22471;DHT22;11402;51.374;6.594;2023-04-30T06:17:37;9.90;99.90
22471;DHT22;11402;51.374;6.594;2023-04-30T06:20:02;10.00;99.90
22471;DHT22;11402;51.374;6.594;2023-04-30T06:22:31;10.10;99.90
22471;DHT22;11402;51.374;6.594;2023-04-30T06:24:57;10.20;99.90
22471;DHT22;11402;51.374;6.594;2023-04-30T06:27:23;10.30;99.90
22471;DHT22;11402;51.374;6.594;2023-04-30T06:29:49;10.30;99.90
22471;DHT22;11402;51.374;6.594;2023-04-30T06:32:15;10.40;99.90
22471;DHT22;11402;51.374;6.594;2023-04-30T06:34:41;10.60;99.90
22471;DHT22;11402;51.374;6.594;2023-04-30T06:37:06;10.90;99.90
22471;DHT22;11402;51.374;6.594;2023-04-30T06:39:32;10.90;99.90
22471;DHT22;11402;51.374;6.594;2023-04-30T06:41:57;10.80;99.90
22471;DHT22;11402;51.374;6.594;2023-04-30T06:44:23;10.90;99.90
22471;DHT22;11402;51.374;6.594;2023-04-30T06:46:49;11.10;99.90
22471;DHT22;11402;51.374;6.594;2023-04-30T06:49:14;11.30;99.90
22471;DHT22;11402;51.374;6.594;2023-04-30T06:51:40;11.20;99.90
22471;DHT22;11402;51.374;6.594;2023-04-30T06:54:07;11.40;99.90
22471;DHT22;11402;51.374;6.594;2023-04-30T06:56:32;11.20;99.90
22471;DHT22;11402;51.374;6.594;2023-04-30T06:58:58;10.90;99.90
22471;DHT22;11402;51.374;6.594;2023-04-30T07:01:23;10.90;99.90
22471;DHT22;11402;51.374;6.594;2023-04-30T07:03:49;11.10;99.90
22471;DHT22;11402;51.374;6.594;2023-04-30T07:06:16;11.30;99.90
22471;DHT22;11402;51.374;6.594;2023-04-30T07:08:42;11.40;99.90
22471;DHT22;11402;51.374;6.594;2023-04-30T07:11:08;11.40;99.90
22471;DHT22;11402;51.374;6.594;2023-04-30T07:13:34;11.20;99.90
22471;DHT22;11402;51.374;6.594;2023-04-30T07:15:59;11.50;99.90
22471;DHT22;11402;51.374;6.594;2023-04-30T07:18:25;11.50;99.90
22471;DHT22;11402;51.374;6.594;2023-04-30T07:20:50;11.60;99.90
22471;DHT22;11402;51.374;6.594;2023-04-30T07:23:16;11.90;99.90
22471;DHT22;11402;51.374;6.594;2023-04-30T07:25:41;12.00;99.90
22471;DHT22;11402;51.374;6.594;2023-04-30T07:28:07;12.30;99.90
22471;DHT22;11402;51.374;6.594;2023-04-30T07:30:32;12.00;99.90
22471;DHT22;11402;51.374;6.594;2023-04-30T07:32:58;12.10;99.90
22471;DHT22;11402;51.374;6.594;2023-04-30T07:35:24;12.00;99.90
22471;DHT22;11402;51.374;6.594;2023-04-30T07:37:49;12.00;99.90
22471;DHT22;11402;51.374;6.594;2023-04-30T07:40:15;12.20;99.90
22471;DHT22;11402;51.374;6.594;2023-04-30T07:42:41;12.00;99.90
22471;DHT22;11402;51.374;6.594;2023-04-30T07:45:07;11.90;99.90
22471;DHT22;11402;51.374;6.594;2023-04-30T07:47:33;12.00;99.90
22471;DHT22;11402;51.374;6.594;2023-04-30T07:49:58;12.10;99.90
22471;DHT22;11402;51.374;6.594;2023-04-30T07:52:24;12.20;99.90
22471;DHT22;11402;51.374;6.594;2023-04-30T07:54:50;12.40;99.90
22471;DHT22;11402;51.374;6.594;2023-04-30T07:57:15;12.30;99.90
22471;DHT22;11402;51.374;6.594;2023-04-30T07:59:41;12.40;99.90
22471;DHT22;11402;51.374;6.594;2023-04-30T08:02:08;12.70;99.90
22471;DHT22;11402;51.374;6.594;2023-04-30T08:04:33;12.90;99.90
22471;DHT22;11402;51.374;6.594;2023-04-30T08:06:59;13.10;99.90
22471;DHT22;11402;51.374;6.594;2023-04-30T08:09:26;13.10;99.90
22471;DHT22;11402;51.374;6.594;2023-04-30T08:11:52;12.60;99.90
22471;DHT22;11402;51.374;6.594;2023-04-30T08:14:18;12.50;99.90
22471;DHT22;11402;51.374;6.594;2023-04-30T08:16:44;12.70;99.90
22471;DHT22;11402;51.374;6.594;2023-04-30T08:19:09;12.60;99.90
22471;DHT22;11402;51.374;6.594;2023-04-30T08:21:35;12.90;99.90
22471;DHT22;11402;51.374;6.594;2023-04-30T08:24:01;12.90;99.90
22471;DHT22;11402;51.374;6.594;2023-04-30T08:26:26;12.80;99.90
22471;DHT22;11402;51.374;6.594;2023-04-30T08:28:52;13.20;99.90
22471;DHT22;11402;51.374;6.594;2023-04-30T08:31:18;13.50;99.90
22471;DHT22;11402;51.374;6.594;2023-04-30T08:33:43;13.70;99.90
22471;DHT22;11402;51.374;6.594;2023-04-30T08:36:09;13.80;99.90
22471;DHT22;11402;51.374;6.594;2023-04-30T08:38:34;13.20;99.90
22471;DHT22;11402;51.374;6.594;2023-04-30T08:41:04;13.10;99.90
22471;DHT22;11402;51.374;6.594;2023-04-30T08:43:33;13.30;99.90
22471;DHT22;11402;51.374;6.594;2023-04-30T08:46:00;13.10;99.90
22471;DHT22;11402;51.374;6.594;2023-04-30T08:48:27;13.30;99.90
22471;DHT22;11402;51.374;6.594;2023-04-30T08:50:53;13.80;99.90
22471;DHT22;11402;51.374;6.594;2023-04-30T08:53:19;13.90;99.90
22471;DHT22;11402;51.374;6.594;2023-04-30T08:55:46;14.00;99.90
22471;DHT22;11402;51.374;6.594;2023-04-30T08:58:11;14.20;99.90
22471;DHT22;11402;51.374;6.594;2023-04-30T09:00:38;13.90;99.90
22471;DHT22;11402;51.374;6.594;2023-04-30T09:03:07;13.90;99.90
22471;DHT22;11402;51.374;6.594;2023-04-30T09:05:32;14.30;99.90
22471;DHT22;11402;51.374;6.594;2023-04-30T09:07:58;14.40;99.90
22471;DHT22;11402;51.374;6.594;2023-04-30T09:10:24;14.20;99.90
22471;DHT22;11402;51.374;6.594;2023-04-30T09:13:06;14.20;99.90
22471;DHT22;11402;51.374;6.594;2023-04-30T09:15:34;14.20;99.90
22471;DHT22;11402;51.374;6.594;2023-04-30T09:18:10;14.10;99.90
22471;DHT22;11402;51.374;6.594;2023-04-30T09:20:37;14.20;99.90
22471;DHT22;11402;51.374;6.594;2023-04-30T09:23:07;14.50;99.90
22471;DHT22;11402;51.374;6.594;2023-04-30T09:25:40;14.80;99.90
22471;DHT22;11402;51.374;6.594;2023-04-30T09:28:10;14.80;99.90
22471;DHT22;11402;51.374;6.594;2023-04-30T09:30:36;14.60;99.90
22471;DHT22;11402;51.374;6.594;2023-04-30T09:33:02;14.50;99.90
22471;DHT22;11402;51.374;6.594;2023-04-30T09:35:33;14.20;99.90
22471;DHT22;11402;51.374;6.594;2023-04-30T09:38:02;14.30;99.90
22471;DHT22;11402;51.374;6.594;2023-04-30T09:40:38;14.30;99.90
22471;DHT22;11402;51.374;6.594;2023-04-30T09:43:05;14.40;99.90
22471;DHT22;11402;51.374;6.594;2023-04-30T09:45:43;14.60;99.90
22471;DHT22;11402;51.374;6.594;2023-04-30T09:48:11;14.60;99.90
22471;DHT22;11402;51.374;6.594;2023-04-30T09:50:38;14.70;99.90
22471;DHT22;11402;51.374;6.594;2023-04-30T09:53:08;14.90;99.90
22471;DHT22;11402;51.374;6.594;2023-04-30T09:55:35;15.10;99.90
22471;DHT22;11402;51.374;6.594;2023-04-30T09:58:05;14.90;99.90
22471;DHT22;11402;51.374;6.594;2023-04-30T10:00:35;14.70;99.90
22471;DHT22;11402;51.374;6.594;2023-04-30T10:03:11;14.80;99.90
22471;DHT22;11402;51.374;6.594;2023-04-30T10:05:40;14.90;99.90
22471;DHT22;11402;51.374;6.594;2023-04-30T10:08:14;15.00;99.90
22471;DHT22;11402;51.374;6.594;2023-04-30T10:10:46;15.20;99.90
22471;DHT22;11402;51.374;6.594;2023-04-30T10:13:17;15.20;99.90
22471;DHT22;11402;51.374;6.594;2023-04-30T10:15:50;15.10;99.90
22471;DHT22;11402;51.374;6.594;2023-04-30T10:18:22;15.20;99.90
22471;DHT22;11402;51.374;6.594;2023-04-30T10:20:53;15.20;99.90
22471;DHT22;11402;51.374;6.594;2023-04-30T10:23:20;15.40;99.90
22471;DHT22;11402;51.374;6.594;2023-04-30T10:25:46;15.50;99.90
22471;DHT22;11402;51.374;6.594;2023-04-30T10:28:13;15.50;99.90
22471;DHT22;11402;51.374;6.594;2023-04-30T10:30:40;15.50;99.90
22471;DHT22;11402;51.374;6.594;2023-04-30T10:36:47;15.60;99.90
22471;DHT22;11402;51.374;6.594;2023-04-30T10:39:17;15.70;99.90
22471;DHT22;11402;51.374;6.594;2023-04-30T10:41:45;15.70;99.90
22471;DHT22;11402;51.374;6.594;2023-04-30T10:44:14;15.90;99.90
22471;DHT22;11402;51.374;6.594;2023-04-30T10:46:46;15.80;99.90
22471;DHT22;11402;51.374;6.594;2023-04-30T10:49:11;15.90;99.90
22471;DHT22;11402;51.374;6.594;2023-04-30T10:51:49;15.90;99.90
22471;DHT22;11402;51.374;6.594;2023-04-30T10:54:27;16.00;99.90
22471;DHT22;11402;51.374;6.594;2023-04-30T10:56:58;16.10;99.90
22471;DHT22;11402;51.374;6.594;2023-04-30T10:59:33;16.10;99.90
22471;DHT22;11402;51.374;6.594;2023-04-30T11:02:00;16.30;99.90
22471;DHT22;11402;51.374;6.594;2023-04-30T11:04:26;16.30;99.90
22471;DHT22;11402;51.374;6.594;2023-04-30T11:09:45;16.20;99.90
22471;DHT22;11402;51.374;6.594;2023-04-30T11:12:19;16.40;99.90
22471;DHT22;11402;51.374;6.594;2023-04-30T11:15:26;16.60;99.90
22471;DHT22;11402;51.374;6.594;2023-04-30T11:17:47;16.60;99.90
22471;DHT22;11402;51.374;6.594;2023-04-30T11:20:18;16.70;99.90
22471;DHT22;11402;51.374;6.594;2023-04-30T11:22:44;16.70;99.90
22471;DHT22;11402;51.374;6.594;2023-04-30T11:25:11;16.40;99.90
22471;DHT22;11402;51.374;6.594;2023-04-30T11:27:41;16.40;99.90
22471;DHT22;11402;51.374;6.594;2023-04-30T11:30:11;16.50;99.90
22471;DHT22;11402;51.374;6.594;2023-04-30T11:32:39;16.60;99.90
22471;DHT22;11402;51.374;6.594;2023-04-30T11:35:06;16.80;99.90
22471;DHT22;11402;51.374;6.594;2023-04-30T11:37:42;16.90;99.90
22471;DHT22;11402;51.374;6.594;2023-04-30T11:40:13;16.70;99.90
22471;DHT22;11402;51.374;6.594;2023-04-30T11:42:40;16.50;99.90
22471;DHT22;11402;51.374;6.594;2023-04-30T11:45:10;16.70;99.90
22471;DHT22;11402;51.374;6.594;2023-04-30T11:47:42;16.80;99.90
22471;DHT22;11402;51.374;6.594;2023-04-30T11:50:09;16.90;99.90
22471;DHT22;11402;51.374;6.594;2023-04-30T11:52:36;16.80;99.90
22471;DHT22;11402;51.374;6.594;2023-04-30T11:55:08;16.60;99.90
22471;DHT22;11402;51.374;6.594;2023-04-30T11:57:46;16.50;99.90
22471;DHT22;11402;51.374;6.594;2023-04-30T12:02:39;16.50;99.90
22471;DHT22;11402;51.374;6.594;2023-04-30T12:05:12;16.70;99.90
22471;DHT22;11402;51.374;6.594;2023-04-30T12:07:38;16.60;99.90
22471;DHT22;11402;51.374;6.594;2023-04-30T12:10:04;16.50;99.90
22471;DHT22;11402;51.374;6.594;2023-04-30T12:12:30;16.50;99.90
22471;DHT22;11402;51.374;6.594;2023-04-30T12:14:56;16.60;99.90
22471;DHT22;11402;51.374;6.594;2023-04-30T12:17:34;16.70;99.90
22471;DHT22;11402;51.374;6.594;2023-04-30T12:20:00;16.60;99.90
22471;DHT22;11402;51.374;6.594;2023-04-30T12:22:26;16.70;99.90
22471;DHT22;11402;51.374;6.594;2023-04-30T12:24:54;16.80;99.90
22471;DHT22;11402;51.374;6.594;2023-04-30T12:27:20;16.80;99.90
22471;DHT22;11402;51.374;6.594;2023-04-30T12:29:46;17.00;99.90
22471;DHT22;11402;51.374;6.594;2023-04-30T12:32:16;17.20;99.90
22471;DHT22;11402;51.374;6.594;2023-04-30T12:34:43;17.20;99.90
22471;DHT22;11402;51.374;6.594;2023-04-30T12:37:09;17.10;99.90
22471;DHT22;11402;51.374;6.594;2023-04-30T12:39:35;17.20;99.90
22471;DHT22;11402;51.374;6.594;2023-04-30T12:42:03;17.10;99.90
22471;DHT22;11402;51.374;6.594;2023-04-30T12:44:29;17.30;99.90
22471;DHT22;11402;51.374;6.594;2023-04-30T12:46:56;17.00;99.90
22471;DHT22;11402;51.374;6.594;2023-04-30T12:51:49;16.90;99.90
22471;DHT22;11402;51.374;6.594;2023-04-30T12:54:26;16.90;99.90
22471;DHT22;11402;51.374;6.594;2023-04-30T12:57:04;17.20;99.90
22471;DHT22;11402;51.374;6.594;2023-04-30T12:59:35;17.10;99.90
22471;DHT22;11402;51.374;6.594;2023-04-30T13:02:13;17.20;99.90
22471;DHT22;11402;51.374;6.594;2023-04-30T13:04:42;17.30;99.90
22471;DHT22;11402;51.374;6.594;2023-04-30T13:07:08;17.30;99.90
22471;DHT22;11402;51.374;6.594;2023-04-30T13:09:35;17.20;99.90
22471;DHT22;11402;51.374;6.594;2023-04-30T13:12:02;17.30;99.90
22471;DHT22;11402;51.374;6.594;2023-04-30T13:14:28;17.30;99.90
22471;DHT22;11402;51.374;6.594;2023-04-30T13:16:54;17.40;99.90
22471;DHT22;11402;51.374;6.594;2023-04-30T13:19:19;17.40;99.90
22471;DHT22;11402;51.374;6.594;2023-04-30T13:21:45;17.30;99.90
22471;DHT22;11402;51.374;6.594;2023-04-30T13:24:11;17.10;99.90
22471;DHT22;11402;51.374;6.594;2023-04-30T13:26:37;17.10;99.90
22471;DHT22;11402;51.374;6.594;2023-04-30T13:29:03;17.30;99.90
22471;DHT22;11402;51.374;6.594;2023-04-30T13:31:29;17.30;99.90
22471;DHT22;11402;51.374;6.594;2023-04-30T13:33:55;17.20;99.90
22471;DHT22;11402;51.374;6.594;2023-04-30T13:36:21;17.30;99.90
22471;DHT22;11402;51.374;6.594;2023-04-30T13:38:46;17.50;99.90
22471;DHT22;11402;51.374;6.594;2023-04-30T13:41:12;17.60;99.90
22471;DHT22;11402;51.374;6.594;2023-04-30T13:43:38;17.60;99.90
22471;DHT22;11402;51.374;6.594;2023-04-30T13:46:07;17.50;99.90
22471;DHT22;11402;51.374;6.594;2023-04-30T13:48:32;17.60;99.90
22471;DHT22;11402;51.374;6.594;2023-04-30T13:50:59;17.40;99.90
22471;DHT22;11402;51.374;6.594;2023-04-30T13:53:24;17.30;99.90
22471;DHT22;11402;51.374;6.594;2023-04-30T13:55:50;17.40;99.90
22471;DHT22;11402;51.374;6.594;2023-04-30T13:58:16;17.30;99.90
22471;DHT22;11402;51.374;6.594;2023-04-30T14:00:42;17.20;99.90
22471;DHT22;11402;51.374;6.594;2023-04-30T14:03:08;17.40;99.90
22471;DHT22;11402;51.374;6.594;2023-04-30T14:05:34;17.40;99.90
22471;DHT22;11402;51.374;6.594;2023-04-30T14:08:00;17.30;99.90
22471;DHT22;11402;51.374;6.594;2023-04-30T14:10:26;17.30;99.90
22471;DHT22;11402;51.374;6.594;2023-04-30T14:12:51;17.30;99.90
22471;DHT22;11402;51.374;6.594;2023-04-30T14:15:18;17.40;99.90
22471;DHT22;11402;51.374;6.594;2023-04-30T14:17:43;17.60;99.90
22471;DHT22;11402;51.374;6.594;2023-04-30T14:20:09;17.50;99.90
22471;DHT22;11402;51.374;6.594;2023-04-30T14:22:35;17.50;99.90
22471;DHT22;11402;51.374;6.594;2023-04-30T14:25:03;17.50;99.90
22471;DHT22;11402;51.374;6.594;2023-04-30T14:27:29;17.60;99.90
22471;DHT22;11402;51.374;6.594;2023-04-30T14:29:55;17.50;99.90
22471;DHT22;11402;51.374;6.594;2023-04-30T14:32:23;17.50;99.90
22471;DHT22;11402;51.374;6.594;2023-04-30T14:34:49;17.50;99.90
22471;DHT22;11402;51.374;6.594;2023-04-30T14:37:14;17.30;99.90
22471;DHT22;11402;51.374;6.594;2023-04-30T14:39:41;17.50;99.90
22471;DHT22;11402;51.374;6.594;2023-04-30T14:42:07;17.50;99.90
22471;DHT22;11402;51.374;6.594;2023-04-30T14:44:33;17.50;99.90
22471;DHT22;11402;51.374;6.594;2023-04-30T14:46:59;17.40;99.90
22471;DHT22;11402;51.374;6.594;2023-04-30T14:49:27;17.40;99.90
22471;DHT22;11402;51.374;6.594;2023-04-30T14:51:53;17.50;99.90
22471;DHT22;11402;51.374;6.594;2023-04-30T14:54:19;17.40;99.90
22471;DHT22;11402;51.374;6.594;2023-04-30T14:56:45;17.50;99.90
22471;DHT22;11402;51.374;6.594;2023-04-30T14:59:12;17.50;99.90
22471;DHT22;11402;51.374;6.594;2023-04-30T15:01:38;17.50;99.90
22471;DHT22;11402;51.374;6.594;2023-04-30T15:04:03;17.40;99.90
22471;DHT22;11402;51.374;6.594;2023-04-30T15:06:29;17.40;99.90
22471;DHT22;11402;51.374;6.594;2023-04-30T15:08:55;17.40;99.90
22471;DHT22;11402;51.374;6.594;2023-04-30T15:11:21;17.60;99.90
22471;DHT22;11402;51.374;6.594;2023-04-30T15:13:48;17.50;99.90
22471;DHT22;11402;51.374;6.594;2023-04-30T15:16:14;17.60;99.90
22471;DHT22;11402;51.374;6.594;2023-04-30T15:18:41;17.50;99.90
22471;DHT22;11402;51.374;6.594;2023-04-30T15:21:07;17.50;99.90
22471;DHT22;11402;51.374;6.594;2023-04-30T15:23:32;17.50;99.90
22471;DHT22;11402;51.374;6.594;2023-04-30T15:25:58;17.40;99.90
22471;DHT22;11402;51.374;6.594;2023-04-30T15:28:23;17.40;99.90
22471;DHT22;11402;51.374;6.594;2023-04-30T15:30:50;17.40;99.90
22471;DHT22;11402;51.374;6.594;2023-04-30T15:33:16;17.40;99.90
22471;DHT22;11402;51.374;6.594;2023-04-30T15:35:43;17.40;99.90
22471;DHT22;11402;51.374;6.594;2023-04-30T15:38:09;17.50;99.90
22471;DHT22;11402;51.374;6.594;2023-04-30T15:40:35;17.40;99.90
22471;DHT22;11402;51.374;6.594;2023-04-30T15:43:01;17.30;99.90
22471;DHT22;11402;51.374;6.594;2023-04-30T15:45:26;17.40;99.90
22471;DHT22;11402;51.374;6.594;2023-04-30T15:47:54;17.30;99.90
22471;DHT22;11402;51.374;6.594;2023-04-30T15:50:19;17.20;99.90
22471;DHT22;11402;51.374;6.594;2023-04-30T15:52:46;17.20;99.90
22471;DHT22;11402;51.374;6.594;2023-04-30T15:55:11;17.20;99.90
22471;DHT22;11402;51.374;6.594;2023-04-30T15:57:37;17.30;99.90
22471;DHT22;11402;51.374;6.594;2023-04-30T16:00:03;17.30;99.90
22471;DHT22;11402;51.374;6.594;2023-04-30T16:02:30;17.30;99.90